createdAt,value
2022-09-15T00:00:28.343Z,6.63
2022-09-15T00:01:00.904Z,6.43
2022-09-15T00:01:32.978Z,7.13
2022-09-15T00:02:04.680Z,7.10
2022-09-15T00:02:36.378Z,7.00
2022-09-15T00:03:07.969Z,7.38
2022-09-15T00:03:40.337Z,7.25
2022-09-15T00:04:12.098Z,7.03
2022-09-15T00:04:43.608Z,6.85
2022-09-15T00:05:15.305Z,6.63
2022-09-15T00:05:47.911Z,7.38
2022-09-15T00:06:20.187Z,7.15
2022-09-15T00:06:53.074Z,6.90
2022-09-15T00:07:24.585Z,6.85
2022-09-15T00:07:56.098Z,7.30
2022-09-15T00:08:27.666Z,7.28
2022-09-15T00:08:59.373Z,6.97
2022-09-15T00:09:31.164Z,6.57
2022-09-15T00:10:05.301Z,6.90
2022-09-15T00:10:36.896Z,6.32
2022-09-15T00:11:17.308Z,7.55
2022-09-15T00:11:48.827Z,6.78
2022-09-15T00:12:20.421Z,7.00
2022-09-15T00:12:51.967Z,7.38
2022-09-15T00:13:23.698Z,7.22
2022-09-15T00:13:56.794Z,7.30
2022-09-15T00:14:28.319Z,6.72
2022-09-15T00:15:00.018Z,7.47
2022-09-15T00:15:31.540Z,7.15
2022-09-15T00:16:04.115Z,7.22
2022-09-15T00:16:35.740Z,7.20
2022-09-15T00:17:07.345Z,7.32
2022-09-15T00:17:38.929Z,7.23
2022-09-15T00:18:10.877Z,7.13
2022-09-15T00:18:43.391Z,7.55
2022-09-15T00:19:15.420Z,7.32
2022-09-15T00:19:47.025Z,7.50
2022-09-15T00:20:20.554Z,7.47
2022-09-15T00:20:52.439Z,7.32
2022-09-15T00:21:27.594Z,7.88
2022-09-15T00:21:59.116Z,7.43
2022-09-15T00:22:30.637Z,7.68
2022-09-15T00:23:02.157Z,7.77
2022-09-15T00:23:34.150Z,7.60
2022-09-15T00:24:06.469Z,8.35
2022-09-15T00:24:38.003Z,7.90
2022-09-15T00:25:09.956Z,8.10
2022-09-15T00:25:45.153Z,7.38
2022-09-15T00:26:20.769Z,8.18
2022-09-15T00:26:52.305Z,8.55
2022-09-15T00:27:23.843Z,8.70
2022-09-15T00:27:55.366Z,8.02
2022-09-15T00:28:26.932Z,8.70
2022-09-15T00:29:00.077Z,8.48
2022-09-15T00:29:31.609Z,8.38
2022-09-15T00:30:04.501Z,8.48
2022-09-15T00:30:47.599Z,8.50
2022-09-15T00:31:22.532Z,8.63
2022-09-15T00:31:54.121Z,8.63
2022-09-15T00:32:25.868Z,8.82
2022-09-15T00:32:57.377Z,9.18
2022-09-15T00:33:28.913Z,9.50
2022-09-15T00:34:05.037Z,9.27
2022-09-15T00:34:36.585Z,8.70
2022-09-15T00:35:08.510Z,8.90
2022-09-15T00:35:41.439Z,9.13
2022-09-15T00:36:14.444Z,9.70
2022-09-15T00:36:46.015Z,9.73
2022-09-15T00:37:18.168Z,8.98
2022-09-15T00:37:49.667Z,8.75
2022-09-15T00:38:21.249Z,9.23
2022-09-15T00:38:52.839Z,9.10
2022-09-15T00:39:24.493Z,9.10
2022-09-15T00:39:56.051Z,9.00
2022-09-15T00:40:27.676Z,9.32
2022-09-15T00:41:00.464Z,8.82
2022-09-15T00:41:32.193Z,9.52
2022-09-15T00:42:04.205Z,8.80
2022-09-15T00:42:35.731Z,8.73
2022-09-15T00:43:10.155Z,8.10
2022-09-15T00:44:04.165Z,8.77
2022-09-15T00:44:35.625Z,8.05
2022-09-15T00:45:14.439Z,8.30
2022-09-15T00:45:46.143Z,7.72
2022-09-15T00:46:23.883Z,8.25
2022-09-15T00:47:17.822Z,8.15
2022-09-15T00:47:49.189Z,7.70
2022-09-15T00:48:21.988Z,7.80
2022-09-15T00:49:26.223Z,7.60
2022-09-15T00:50:03.199Z,7.60
2022-09-15T00:50:36.199Z,7.68
2022-09-15T00:51:09.717Z,7.78
2022-09-15T00:51:45.337Z,7.57
2022-09-15T00:52:51.586Z,7.57
2022-09-15T00:53:24.925Z,7.85
2022-09-15T00:53:57.265Z,8.10
2022-09-15T00:54:49.716Z,7.32
2022-09-15T00:55:28.300Z,6.95
2022-09-15T00:56:02.723Z,7.43
2022-09-15T00:56:36.393Z,7.18
2022-09-15T00:57:12.948Z,7.05
2022-09-15T00:58:11.861Z,6.82
2022-09-15T00:58:48.522Z,7.07
2022-09-15T00:59:24.265Z,7.47
2022-09-15T00:59:57.689Z,7.32
2022-09-15T01:00:29.347Z,7.88
2022-09-15T01:01:03.380Z,7.97
2022-09-15T01:01:35.638Z,7.30
2022-09-15T01:02:21.149Z,8.30
2022-09-15T01:02:53.248Z,7.28
2022-09-15T01:03:26.359Z,7.30
2022-09-15T01:03:58.309Z,7.15
2022-09-15T01:04:30.056Z,6.87
2022-09-15T01:05:05.459Z,7.00
2022-09-15T01:05:42.725Z,7.35
2022-09-15T01:06:21.749Z,7.05
2022-09-15T01:06:58.567Z,7.65
2022-09-15T01:07:39.454Z,6.90
2022-09-15T01:08:20.862Z,7.30
2022-09-15T01:09:01.636Z,7.50
2022-09-15T01:09:49.893Z,7.45
2022-09-15T01:10:47.705Z,7.38
2022-09-15T01:11:19.531Z,7.17
2022-09-15T01:11:51.187Z,7.20
2022-09-15T01:12:25.053Z,7.18
2022-09-15T01:13:02.887Z,7.32
2022-09-15T01:13:34.393Z,6.90
2022-09-15T01:14:05.909Z,7.32
2022-09-15T01:14:37.445Z,6.65
2022-09-15T01:15:09.772Z,7.28
2022-09-15T01:16:03.903Z,6.35
2022-09-15T01:17:08.028Z,6.35
2022-09-15T01:17:51.786Z,6.10
2022-09-15T01:18:53.289Z,6.53
2022-09-15T01:20:16.074Z,6.50
2022-09-15T01:20:57.605Z,6.32
2022-09-15T01:21:29.094Z,6.57
2022-09-15T01:22:03.441Z,6.70
2022-09-15T01:22:49.643Z,6.90
2022-09-15T01:23:21.147Z,6.50
2022-09-15T01:23:58.839Z,6.40
2022-09-15T01:24:51.185Z,6.30
2022-09-15T01:25:28.305Z,6.13
2022-09-15T01:26:14.913Z,6.45
2022-09-15T01:27:37.589Z,6.57
2022-09-15T01:28:39.872Z,6.10
2022-09-15T01:29:29.802Z,6.47
2022-09-15T01:30:23.918Z,5.82
2022-09-15T01:31:10.853Z,7.00
2022-09-15T01:32:10.317Z,6.40
2022-09-15T01:33:05.955Z,6.95
2022-09-15T01:33:42.876Z,6.45
2022-09-15T01:34:18.308Z,7.90
2022-09-15T01:35:02.598Z,6.57
2022-09-15T01:35:52.745Z,6.43
2022-09-15T01:36:50.589Z,6.57
2022-09-15T01:37:29.595Z,6.63
2022-09-15T01:38:39.881Z,5.95
2022-09-15T01:39:16.897Z,6.57
2022-09-15T01:39:52.733Z,6.35
2022-09-15T01:40:28.730Z,6.63
2022-09-15T01:41:06.766Z,6.47
2022-09-15T01:41:52.233Z,6.80
2022-09-15T01:42:25.510Z,6.40
2022-09-15T01:42:59.511Z,6.45
2022-09-15T01:43:34.837Z,6.55
2022-09-15T01:44:13.694Z,6.38
2022-09-15T01:44:51.813Z,6.60
2022-09-15T01:45:31.159Z,6.53
2022-09-15T01:46:03.751Z,6.50
2022-09-15T01:46:40.562Z,7.10
2022-09-15T01:47:16.913Z,6.22
2022-09-15T01:47:52.178Z,6.50
2022-09-15T01:48:27.401Z,6.60
2022-09-15T01:49:02.024Z,6.00
2022-09-15T01:49:51.305Z,6.40
2022-09-15T01:50:28.337Z,6.22
2022-09-15T01:51:02.969Z,6.40
2022-09-15T01:51:36.884Z,6.07
2022-09-15T01:52:08.645Z,6.68
2022-09-15T01:52:44.871Z,6.53
2022-09-15T01:53:20.973Z,5.90
2022-09-15T01:53:54.621Z,6.37
2022-09-15T01:54:32.921Z,6.22
2022-09-15T01:55:12.950Z,6.15
2022-09-15T01:56:08.737Z,6.85
2022-09-15T01:56:41.957Z,5.95
2022-09-15T01:57:13.578Z,6.43
2022-09-15T01:57:45.498Z,6.50
2022-09-15T01:58:17.043Z,6.28
2022-09-15T01:58:51.061Z,6.60
2022-09-15T01:59:22.875Z,6.05
2022-09-15T01:59:56.175Z,6.60
2022-09-15T02:01:32.112Z,6.60
2022-09-15T02:02:42.599Z,6.10
2022-09-15T02:03:32.104Z,5.47
2022-09-15T02:04:12.814Z,5.88
2022-09-15T02:04:59.515Z,5.80
2022-09-15T02:05:36.960Z,5.60
2022-09-15T02:06:16.927Z,6.22
2022-09-15T02:06:58.458Z,5.90
2022-09-15T02:07:51.957Z,6.37
2022-09-15T02:08:31.552Z,6.10
2022-09-15T02:09:28.090Z,5.65
2022-09-15T02:10:11.502Z,6.10
2022-09-15T02:10:48.852Z,5.90
2022-09-15T02:11:26.551Z,6.40
2022-09-15T02:12:11.026Z,6.18
2022-09-15T02:12:50.657Z,6.40
2022-09-15T02:13:39.160Z,6.28
2022-09-15T02:14:17.376Z,6.20
2022-09-15T02:15:03.467Z,6.10
2022-09-15T02:15:48.117Z,6.00
2022-09-15T02:16:22.951Z,6.57
2022-09-15T02:16:54.723Z,5.90
2022-09-15T02:17:29.202Z,6.15
2022-09-15T02:18:05.850Z,5.90
2022-09-15T02:19:08.857Z,6.00
2022-09-15T02:19:47.503Z,6.05
2022-09-15T02:20:33.079Z,5.93
2022-09-15T02:21:10.922Z,5.78
2022-09-15T02:21:54.865Z,5.90
2022-09-15T02:22:31.479Z,5.97
2022-09-15T02:23:16.081Z,5.97
2022-09-15T02:23:51.222Z,5.63
2022-09-15T02:24:28.821Z,5.40
2022-09-15T02:25:05.763Z,5.65
2022-09-15T02:25:51.598Z,5.70
2022-09-15T02:26:27.788Z,5.60
2022-09-15T02:27:01.781Z,5.93
2022-09-15T02:27:38.919Z,5.57
2022-09-15T02:28:12.977Z,5.50
2022-09-15T02:28:47.093Z,5.57
2022-09-15T02:29:20.783Z,5.82
2022-09-15T02:29:56.603Z,5.47
2022-09-15T02:30:29.521Z,5.13
2022-09-15T02:31:03.837Z,5.07
2022-09-15T02:31:40.591Z,5.07
2022-09-15T02:32:13.822Z,4.82
2022-09-15T02:32:54.410Z,5.03
2022-09-15T02:33:31.183Z,4.93
2022-09-15T02:34:09.159Z,4.37
2022-09-15T02:34:47.303Z,4.13
2022-09-15T02:35:19.341Z,4.63
2022-09-15T02:35:52.673Z,4.45
2022-09-15T02:36:26.783Z,4.32
2022-09-15T02:36:59.158Z,4.25
2022-09-15T02:37:31.052Z,4.85
2022-09-15T02:38:06.502Z,4.10
2022-09-15T02:38:44.003Z,4.05
2022-09-15T02:39:19.499Z,4.60
2022-09-15T02:39:58.072Z,4.10
2022-09-15T02:40:30.466Z,4.57
2022-09-15T02:41:02.894Z,5.15
2022-09-15T02:41:37.272Z,4.95
2022-09-15T02:42:10.355Z,4.25
2022-09-15T02:42:53.392Z,4.30
2022-09-15T02:43:24.909Z,4.40
2022-09-15T02:43:56.510Z,4.80
2022-09-15T02:44:30.645Z,4.35
2022-09-15T02:45:02.658Z,4.65
2022-09-15T02:45:34.303Z,4.50
2022-09-15T02:46:06.087Z,4.72
2022-09-15T02:46:39.160Z,4.90
2022-09-15T02:47:10.719Z,4.47
2022-09-15T02:47:42.223Z,4.68
2022-09-15T02:48:13.831Z,4.78
2022-09-15T02:48:45.359Z,4.32
2022-09-15T02:49:17.044Z,4.90
2022-09-15T02:49:48.524Z,4.47
2022-09-15T02:50:20.708Z,4.90
2022-09-15T02:50:52.251Z,4.90
2022-09-15T02:51:23.918Z,4.47
2022-09-15T02:51:55.559Z,5.50
2022-09-15T02:52:27.104Z,5.53
2022-09-15T02:52:58.596Z,4.80
2022-09-15T02:53:30.097Z,5.25
2022-09-15T02:54:01.777Z,4.70
2022-09-15T02:54:33.365Z,4.32
2022-09-15T02:55:05.249Z,5.05
2022-09-15T02:55:36.798Z,4.75
2022-09-15T02:56:08.373Z,4.63
2022-09-15T02:56:39.921Z,4.72
2022-09-15T02:57:11.765Z,4.60
2022-09-15T02:57:43.349Z,4.40
2022-09-15T02:58:14.850Z,4.40
2022-09-15T02:58:46.538Z,4.47
2022-09-15T02:59:18.061Z,4.35
2022-09-15T03:00:08.012Z,4.60
2022-09-15T03:00:39.579Z,4.55
2022-09-15T03:01:15.687Z,4.60
2022-09-15T03:01:47.371Z,4.20
2022-09-15T03:02:20.637Z,4.32
2022-09-15T03:02:54.393Z,4.43
2022-09-15T03:03:25.920Z,4.45
2022-09-15T03:03:58.042Z,4.30
2022-09-15T03:04:29.571Z,4.50
2022-09-15T03:05:01.119Z,4.60
2022-09-15T03:05:32.651Z,4.45
2022-09-15T03:06:21.302Z,5.63
2022-09-15T03:06:52.784Z,5.10
2022-09-15T03:07:24.971Z,5.13
2022-09-15T03:07:57.428Z,4.80
2022-09-15T03:08:28.911Z,4.90
2022-09-15T03:09:03.888Z,5.38
2022-09-15T03:09:35.390Z,5.00
2022-09-15T03:10:08.578Z,5.10
2022-09-15T03:10:40.236Z,4.68
2022-09-15T03:11:12.183Z,5.25
2022-09-15T03:11:43.675Z,5.43
2022-09-15T03:12:15.194Z,5.00
2022-09-15T03:12:49.593Z,4.90
2022-09-15T03:13:21.228Z,5.40
2022-09-15T03:13:57.405Z,4.88
2022-09-15T03:14:29.700Z,5.47
2022-09-15T03:15:01.196Z,4.57
2022-09-15T03:15:33.371Z,4.82
2022-09-15T03:16:13.005Z,4.68
2022-09-15T03:16:44.549Z,5.00
2022-09-15T03:17:16.855Z,4.85
2022-09-15T03:17:49.103Z,4.43
2022-09-15T03:18:20.594Z,4.20
2022-09-15T03:18:54.706Z,4.63
2022-09-15T03:19:26.762Z,4.70
2022-09-15T03:19:58.258Z,4.38
2022-09-15T03:20:30.326Z,4.35
2022-09-15T03:21:02.149Z,4.32
2022-09-15T03:21:33.722Z,4.65
2022-09-15T03:22:05.233Z,4.68
2022-09-15T03:22:36.934Z,4.18
2022-09-15T03:23:08.767Z,3.63
2022-09-15T03:23:41.167Z,3.80
2022-09-15T03:24:15.344Z,4.00
2022-09-15T03:24:46.844Z,4.47
2022-09-15T03:25:18.669Z,4.07
2022-09-15T03:25:50.164Z,4.43
2022-09-15T03:26:21.701Z,4.43
2022-09-15T03:26:53.471Z,4.13
2022-09-15T03:27:25.015Z,4.50
2022-09-15T03:27:56.584Z,4.47
2022-09-15T03:28:28.409Z,4.13
2022-09-15T03:28:59.891Z,4.03
2022-09-15T03:29:31.470Z,3.72
2022-09-15T03:30:05.147Z,3.65
2022-09-15T03:30:36.723Z,3.63
2022-09-15T03:31:09.574Z,4.18
2022-09-15T03:31:41.303Z,4.53
2022-09-15T03:32:12.891Z,3.80
2022-09-15T03:32:44.477Z,3.83
2022-09-15T03:33:15.986Z,3.78
2022-09-15T03:33:47.864Z,3.60
2022-09-15T03:34:19.382Z,3.70
2022-09-15T03:34:52.447Z,3.80
2022-09-15T03:35:26.736Z,3.80
2022-09-15T03:35:58.640Z,4.20
2022-09-15T03:36:30.938Z,3.67
2022-09-15T03:37:02.500Z,4.22
2022-09-15T03:37:34.690Z,3.78
2022-09-15T03:38:06.570Z,3.75
2022-09-15T03:38:38.074Z,4.10
2022-09-15T03:39:11.760Z,3.95
2022-09-15T03:39:43.390Z,3.83
2022-09-15T03:40:15.039Z,4.00
2022-09-15T03:40:58.275Z,3.90
2022-09-15T03:41:29.976Z,4.00
2022-09-15T03:42:01.481Z,3.85
2022-09-15T03:42:33.033Z,4.00
2022-09-15T03:43:04.534Z,3.75
2022-09-15T03:43:36.766Z,4.03
2022-09-15T03:44:08.291Z,3.50
2022-09-15T03:44:39.873Z,4.18
2022-09-15T03:45:11.389Z,4.00
2022-09-15T03:45:42.940Z,4.18
2022-09-15T03:46:14.660Z,3.90
2022-09-15T03:46:46.294Z,4.53
2022-09-15T03:47:17.844Z,4.80
2022-09-15T03:47:49.354Z,4.38
2022-09-15T03:48:21.038Z,4.70
2022-09-15T03:48:52.538Z,4.70
2022-09-15T03:49:25.468Z,4.50
2022-09-15T03:49:56.979Z,4.55
2022-09-15T03:50:28.480Z,4.80
2022-09-15T03:51:00.030Z,4.65
2022-09-15T03:51:31.539Z,4.82
2022-09-15T03:52:03.402Z,5.18
2022-09-15T03:52:34.934Z,4.82
2022-09-15T03:53:06.426Z,4.88
2022-09-15T03:53:39.846Z,4.90
2022-09-15T03:54:11.752Z,4.78
2022-09-15T03:54:43.862Z,5.18
2022-09-15T03:55:15.410Z,4.45
2022-09-15T03:55:48.394Z,5.03
2022-09-15T03:56:26.684Z,4.88
2022-09-15T03:56:58.206Z,4.57
2022-09-15T03:57:29.710Z,4.63
2022-09-15T03:58:01.219Z,5.30
2022-09-15T03:58:32.731Z,4.72
2022-09-15T03:59:06.479Z,5.20
2022-09-15T03:59:38.014Z,4.63
2022-09-15T04:00:10.185Z,4.63
2022-09-15T04:00:41.909Z,4.57
2022-09-15T04:01:13.917Z,5.33
2022-09-15T04:01:46.508Z,5.10
2022-09-15T04:02:19.208Z,5.10
2022-09-15T04:02:50.788Z,5.03
2022-09-15T04:03:23.046Z,5.03
2022-09-15T04:03:55.122Z,5.07
2022-09-15T04:04:26.764Z,5.10
2022-09-15T04:04:58.282Z,4.90
2022-09-15T04:05:29.962Z,5.07
2022-09-15T04:06:01.486Z,4.80
2022-09-15T04:06:33.143Z,4.70
2022-09-15T04:07:04.654Z,4.30
2022-09-15T04:07:36.355Z,3.00
2022-09-15T04:08:12.069Z,4.63
2022-09-15T04:08:44.058Z,3.80
2022-09-15T04:09:15.857Z,3.83
2022-09-15T04:09:47.401Z,3.67
2022-09-15T04:10:18.978Z,4.05
2022-09-15T04:10:50.548Z,4.28
2022-09-15T04:11:22.845Z,3.35
2022-09-15T04:11:54.362Z,3.83
2022-09-15T04:12:25.870Z,3.83
2022-09-15T04:12:57.539Z,3.67
2022-09-15T04:13:29.076Z,3.63
2022-09-15T04:14:00.620Z,3.25
2022-09-15T04:14:32.218Z,3.30
2022-09-15T04:15:04.495Z,2.55
2022-09-15T04:15:36.016Z,2.60
2022-09-15T04:16:10.651Z,3.15
2022-09-15T04:16:42.247Z,3.47
2022-09-15T04:17:15.516Z,3.47
2022-09-15T04:17:47.734Z,2.65
2022-09-15T04:18:19.257Z,2.40
2022-09-15T04:18:52.137Z,2.40
2022-09-15T04:19:23.624Z,2.40
2022-09-15T04:19:55.616Z,2.47
2022-09-15T04:20:27.315Z,2.55
2022-09-15T04:21:05.607Z,2.60
2022-09-15T04:21:37.171Z,2.15
2022-09-15T04:22:08.811Z,2.63
2022-09-15T04:22:40.564Z,2.80
2022-09-15T04:23:12.050Z,2.75
2022-09-15T04:23:44.351Z,2.60
2022-09-15T04:24:15.935Z,3.20
2022-09-15T04:24:50.782Z,3.13
2022-09-15T04:25:22.339Z,3.15
2022-09-15T04:25:58.226Z,2.78
2022-09-15T04:26:31.772Z,3.20
2022-09-15T04:27:03.452Z,2.75
2022-09-15T04:27:36.320Z,3.33
2022-09-15T04:28:07.812Z,3.37
2022-09-15T04:28:40.611Z,3.25
2022-09-15T04:29:15.765Z,3.13
2022-09-15T04:29:51.149Z,3.55
2022-09-15T04:30:23.034Z,3.17
2022-09-15T04:31:03.846Z,3.20
2022-09-15T04:31:35.465Z,3.60
2022-09-15T04:32:07.359Z,3.30
2022-09-15T04:32:38.919Z,3.72
2022-09-15T04:33:10.425Z,2.70
2022-09-15T04:33:43.402Z,3.40
2022-09-15T04:34:14.896Z,3.17
2022-09-15T04:34:46.767Z,3.15
2022-09-15T04:35:18.266Z,3.63
2022-09-15T04:35:49.812Z,3.20
2022-09-15T04:36:24.454Z,3.53
2022-09-15T04:36:55.959Z,3.92
2022-09-15T04:37:27.516Z,3.75
2022-09-15T04:38:00.139Z,3.97
2022-09-15T04:38:31.856Z,3.65
2022-09-15T04:39:06.556Z,3.90
2022-09-15T04:39:38.726Z,3.78
2022-09-15T04:40:11.358Z,3.40
2022-09-15T04:40:43.016Z,3.80
2022-09-15T04:41:15.342Z,4.50
2022-09-15T04:41:46.924Z,4.10
2022-09-15T04:42:20.614Z,3.42
2022-09-15T04:42:52.814Z,3.25
2022-09-15T04:43:25.880Z,3.90
2022-09-15T04:43:57.509Z,3.50
2022-09-15T04:44:29.143Z,3.30
2022-09-15T04:45:00.667Z,3.60
2022-09-15T04:45:33.408Z,4.07
2022-09-15T04:46:05.373Z,4.15
2022-09-15T04:46:37.010Z,4.47
2022-09-15T04:47:08.536Z,4.30
2022-09-15T04:47:40.116Z,4.13
2022-09-15T04:48:11.672Z,4.40
2022-09-15T04:48:44.007Z,4.35
2022-09-15T04:49:15.523Z,3.40
2022-09-15T04:49:47.104Z,4.40
2022-09-15T04:50:19.075Z,3.97
2022-09-15T04:50:51.019Z,4.18
2022-09-15T04:51:23.460Z,3.95
2022-09-15T04:51:55.215Z,4.53
2022-09-15T04:52:26.703Z,3.55
2022-09-15T04:52:58.193Z,4.10
2022-09-15T04:53:30.452Z,4.05
2022-09-15T04:54:02.052Z,4.10
2022-09-15T04:54:34.685Z,4.00
2022-09-15T04:55:06.368Z,4.00
2022-09-15T04:55:38.449Z,3.90
2022-09-15T04:56:13.015Z,4.28
2022-09-15T04:56:45.628Z,4.35
2022-09-15T04:57:17.138Z,3.85
2022-09-15T04:57:48.763Z,4.30
2022-09-15T04:58:20.260Z,4.43
2022-09-15T04:58:56.486Z,4.45
2022-09-15T04:59:31.140Z,4.30
2022-09-15T05:00:06.465Z,4.18
2022-09-15T05:00:43.547Z,4.03
2022-09-15T05:01:17.856Z,4.00
2022-09-15T05:01:49.467Z,3.50
2022-09-15T05:02:21.259Z,4.30
2022-09-15T05:02:53.632Z,4.85
2022-09-15T05:03:25.231Z,3.70
2022-09-15T05:03:57.169Z,4.30
2022-09-15T05:04:28.700Z,4.10
2022-09-15T05:05:00.239Z,4.25
2022-09-15T05:05:34.016Z,3.63
2022-09-15T05:06:07.442Z,3.43
2022-09-15T05:06:39.206Z,4.28
2022-09-15T05:07:10.878Z,3.95
2022-09-15T05:07:42.413Z,4.40
2022-09-15T05:08:13.947Z,3.75
2022-09-15T05:08:49.694Z,3.67
2022-09-15T05:09:21.371Z,4.38
2022-09-15T05:09:53.237Z,4.28
2022-09-15T05:10:24.763Z,4.03
2022-09-15T05:11:04.987Z,4.35
2022-09-15T05:11:36.496Z,4.40
2022-09-15T05:12:08.035Z,4.07
2022-09-15T05:12:39.591Z,3.97
2022-09-15T05:13:11.133Z,4.05
2022-09-15T05:13:43.291Z,3.80
2022-09-15T05:14:14.905Z,4.28
2022-09-15T05:14:46.411Z,4.35
2022-09-15T05:15:18.102Z,4.30
2022-09-15T05:15:49.638Z,4.20
2022-09-15T05:16:23.454Z,4.20
2022-09-15T05:16:55.137Z,4.97
2022-09-15T05:17:26.934Z,4.30
2022-09-15T05:17:58.576Z,4.55
2022-09-15T05:18:30.631Z,4.30
2022-09-15T05:19:04.636Z,4.68
2022-09-15T05:19:36.209Z,4.25
2022-09-15T05:20:08.081Z,3.95
2022-09-15T05:20:39.570Z,3.88
2022-09-15T05:21:13.327Z,4.63
2022-09-15T05:21:44.926Z,4.20
2022-09-15T05:22:16.421Z,4.13
2022-09-15T05:22:47.964Z,4.00
2022-09-15T05:23:19.443Z,4.10
2022-09-15T05:23:52.045Z,3.90
2022-09-15T05:24:23.769Z,4.28
2022-09-15T05:24:55.281Z,4.53
2022-09-15T05:25:26.845Z,4.68
2022-09-15T05:25:59.697Z,4.72
2022-09-15T05:26:31.746Z,3.95
2022-09-15T05:27:03.421Z,3.40
2022-09-15T05:27:34.917Z,4.37
2022-09-15T05:28:06.691Z,3.95
2022-09-15T05:28:38.817Z,4.68
2022-09-15T05:29:10.382Z,4.57
2022-09-15T05:29:41.891Z,4.00
2022-09-15T05:30:36.870Z,4.20
2022-09-15T05:31:17.893Z,3.85
2022-09-15T05:31:49.502Z,4.00
2022-09-15T05:32:21.214Z,4.00
2022-09-15T05:32:53.542Z,3.97
2022-09-15T05:33:25.138Z,4.00
2022-09-15T05:33:57.011Z,3.75
2022-09-15T05:34:28.515Z,4.20
2022-09-15T05:35:00.014Z,4.10
2022-09-15T05:35:31.506Z,4.07
2022-09-15T05:36:03.961Z,4.00
2022-09-15T05:36:35.479Z,4.30
2022-09-15T05:37:07.027Z,4.38
2022-09-15T05:37:38.509Z,4.20
2022-09-15T05:38:10.001Z,3.92
2022-09-15T05:38:41.864Z,3.80
2022-09-15T05:39:13.510Z,3.40
2022-09-15T05:39:45.487Z,3.90
2022-09-15T05:40:17.258Z,4.47
2022-09-15T05:40:49.113Z,4.00
2022-09-15T05:41:21.030Z,4.25
2022-09-15T05:41:52.526Z,4.53
2022-09-15T05:42:24.129Z,3.60
2022-09-15T05:42:55.639Z,3.95
2022-09-15T05:43:30.813Z,4.20
2022-09-15T05:44:02.673Z,3.97
2022-09-15T05:44:34.533Z,3.72
2022-09-15T05:45:06.719Z,4.07
2022-09-15T05:45:38.281Z,4.18
2022-09-15T05:46:10.537Z,4.05
2022-09-15T05:46:42.129Z,3.95
2022-09-15T05:47:13.750Z,4.35
2022-09-15T05:47:45.250Z,4.25
2022-09-15T05:48:16.749Z,3.88
2022-09-15T05:48:48.305Z,4.00
2022-09-15T05:49:19.849Z,4.40
2022-09-15T05:49:51.333Z,4.38
2022-09-15T05:50:23.074Z,4.63
2022-09-15T05:50:55.780Z,3.90
2022-09-15T05:51:27.766Z,4.38
2022-09-15T05:51:59.402Z,4.00
2022-09-15T05:52:30.896Z,4.00
2022-09-15T05:53:02.727Z,4.78
2022-09-15T05:53:35.683Z,4.72
2022-09-15T05:54:07.546Z,4.35
2022-09-15T05:54:39.078Z,4.63
2022-09-15T05:55:10.633Z,4.40
2022-09-15T05:55:42.434Z,4.60
2022-09-15T05:56:15.856Z,4.25
2022-09-15T05:56:50.077Z,4.45
2022-09-15T05:57:21.585Z,4.05
2022-09-15T05:57:53.734Z,4.38
2022-09-15T05:58:26.296Z,4.65
2022-09-15T05:58:57.863Z,4.45
2022-09-15T05:59:29.374Z,4.10
2022-09-15T06:00:01.055Z,4.23
2022-09-15T06:00:33.563Z,3.72
2022-09-15T06:01:07.964Z,3.83
2022-09-15T06:01:39.755Z,3.70
2022-09-15T06:02:11.801Z,3.85
2022-09-15T06:02:43.484Z,4.15
2022-09-15T06:03:16.244Z,3.90
2022-09-15T06:03:48.464Z,3.63
2022-09-15T06:04:19.953Z,4.13
2022-09-15T06:04:51.702Z,3.88
2022-09-15T06:05:23.281Z,4.00
2022-09-15T06:06:02.225Z,4.03
2022-09-15T06:06:33.831Z,3.70
2022-09-15T06:07:05.366Z,3.97
2022-09-15T06:07:36.933Z,3.92
2022-09-15T06:08:08.600Z,3.47
2022-09-15T06:08:47.982Z,3.80
2022-09-15T06:09:19.842Z,3.70
2022-09-15T06:09:51.392Z,3.67
2022-09-15T06:10:24.949Z,3.80
2022-09-15T06:11:04.247Z,4.03
2022-09-15T06:11:35.882Z,3.85
2022-09-15T06:12:07.548Z,4.00
2022-09-15T06:12:39.065Z,4.35
2022-09-15T06:13:10.647Z,3.88
2022-09-15T06:13:42.770Z,3.80
2022-09-15T06:14:14.434Z,3.67
2022-09-15T06:14:50.367Z,3.58
2022-09-15T06:15:22.926Z,4.03
2022-09-15T06:15:54.560Z,3.55
2022-09-15T06:16:26.781Z,3.60
2022-09-15T06:16:58.390Z,3.90
2022-09-15T06:17:32.638Z,3.30
2022-09-15T06:18:04.199Z,3.55
2022-09-15T06:18:37.314Z,3.30
2022-09-15T06:19:08.906Z,3.33
2022-09-15T06:19:40.539Z,3.40
2022-09-15T06:20:12.300Z,3.80
2022-09-15T06:20:43.836Z,4.00
2022-09-15T06:21:20.365Z,3.50
2022-09-15T06:21:52.236Z,3.47
2022-09-15T06:22:24.185Z,3.55
2022-09-15T06:22:56.561Z,3.60
2022-09-15T06:23:28.174Z,3.63
2022-09-15T06:24:01.976Z,3.85
2022-09-15T06:24:33.467Z,3.30
2022-09-15T06:25:05.962Z,4.45
2022-09-15T06:25:37.480Z,3.28
2022-09-15T06:26:14.666Z,3.25
2022-09-15T06:26:46.186Z,3.78
2022-09-15T06:27:17.730Z,3.63
2022-09-15T06:27:50.232Z,3.40
2022-09-15T06:28:21.853Z,3.67
2022-09-15T06:28:55.983Z,4.15
2022-09-15T06:29:28.800Z,3.80
2022-09-15T06:30:00.312Z,3.80
2022-09-15T06:30:31.839Z,4.10
2022-09-15T06:31:03.899Z,3.60
2022-09-15T06:31:35.882Z,3.25
2022-09-15T06:32:07.474Z,3.58
2022-09-15T06:32:39.182Z,3.90
2022-09-15T06:33:10.684Z,3.90
2022-09-15T06:33:44.181Z,3.60
2022-09-15T06:34:15.832Z,3.65
2022-09-15T06:34:47.676Z,3.67
2022-09-15T06:35:19.227Z,3.47
2022-09-15T06:35:50.712Z,3.10
2022-09-15T06:36:24.754Z,3.30
2022-09-15T06:36:56.266Z,3.20
2022-09-15T06:37:27.758Z,3.30
2022-09-15T06:37:59.289Z,3.47
2022-09-15T06:38:31.247Z,3.38
2022-09-15T06:39:03.088Z,3.35
2022-09-15T06:39:35.205Z,3.67
2022-09-15T06:40:07.989Z,3.20
2022-09-15T06:40:39.521Z,3.17
2022-09-15T06:41:12.134Z,3.17
2022-09-15T06:42:01.162Z,3.03
2022-09-15T06:42:34.043Z,3.30
2022-09-15T06:43:05.679Z,3.40
2022-09-15T06:43:37.947Z,3.50
2022-09-15T06:44:10.039Z,3.15
2022-09-15T06:44:41.569Z,3.67
2022-09-15T06:45:13.065Z,3.90
2022-09-15T06:45:44.601Z,3.60
2022-09-15T06:46:21.830Z,3.30
2022-09-15T06:46:53.697Z,3.42
2022-09-15T06:47:25.214Z,3.55
2022-09-15T06:48:20.256Z,3.47
2022-09-15T06:48:48.983Z,3.67
2022-09-15T06:49:21.776Z,3.30
2022-09-15T06:49:54.795Z,3.20
2022-09-15T06:50:26.377Z,2.90
2022-09-15T06:50:58.406Z,3.05
2022-09-15T06:51:35.288Z,3.60
2022-09-15T06:52:06.849Z,3.30
2022-09-15T06:52:38.363Z,3.30
2022-09-15T06:53:10.358Z,3.72
2022-09-15T06:53:41.867Z,3.10
2022-09-15T06:54:15.982Z,2.65
2022-09-15T06:54:47.514Z,3.10
2022-09-15T06:55:19.413Z,2.70
2022-09-15T06:55:50.957Z,3.00
2022-09-15T06:56:23.896Z,3.55
2022-09-15T06:56:55.438Z,3.25
2022-09-15T06:57:26.952Z,4.00
2022-09-15T06:57:58.875Z,3.50
2022-09-15T06:58:31.095Z,3.75
2022-09-15T06:59:03.922Z,4.10
2022-09-15T06:59:35.435Z,3.67
2022-09-15T07:00:07.885Z,3.70
2022-09-15T07:00:39.489Z,4.00
2022-09-15T07:01:13.810Z,3.65
2022-09-15T07:01:45.313Z,4.38
2022-09-15T07:02:16.934Z,4.70
2022-09-15T07:02:51.835Z,4.82
2022-09-15T07:03:23.441Z,4.95
2022-09-15T07:03:56.569Z,4.30
2022-09-15T07:04:28.075Z,4.15
2022-09-15T07:04:59.579Z,3.13
2022-09-15T07:05:31.131Z,3.33
2022-09-15T07:06:04.199Z,3.55
2022-09-15T07:06:37.902Z,3.60
2022-09-15T07:07:09.561Z,3.15
2022-09-15T07:07:41.147Z,3.42
2022-09-15T07:08:12.679Z,2.70
2022-09-15T07:08:45.367Z,3.05
2022-09-15T07:09:17.134Z,3.53
2022-09-15T07:09:49.275Z,3.08
2022-09-15T07:10:20.881Z,3.17
2022-09-15T07:10:52.469Z,3.17
2022-09-15T07:11:24.722Z,3.45
2022-09-15T07:11:56.322Z,2.88
2022-09-15T07:12:27.887Z,3.13
2022-09-15T07:13:01.991Z,3.13
2022-09-15T07:13:33.531Z,3.00
2022-09-15T07:14:05.245Z,2.92
2022-09-15T07:14:36.841Z,3.00
2022-09-15T07:15:09.197Z,3.13
2022-09-15T07:15:40.742Z,4.50
2022-09-15T07:16:13.143Z,3.43
2022-09-15T07:16:44.788Z,3.00
2022-09-15T07:17:16.403Z,2.83
2022-09-15T07:17:47.909Z,2.70
2022-09-15T07:18:21.803Z,2.97
2022-09-15T07:18:56.907Z,2.38
2022-09-15T07:19:28.468Z,3.05
2022-09-15T07:20:01.222Z,2.72
2022-09-15T07:20:33.214Z,3.22
2022-09-15T07:21:11.410Z,3.10
2022-09-15T07:21:42.945Z,2.67
2022-09-15T07:22:14.530Z,2.90
2022-09-15T07:22:46.069Z,3.40
2022-09-15T07:23:18.647Z,3.15
2022-09-15T07:23:50.626Z,3.42
2022-09-15T07:24:22.159Z,3.33
2022-09-15T07:24:53.662Z,3.42
2022-09-15T07:25:25.265Z,3.38
2022-09-15T07:26:14.384Z,3.45
2022-09-15T07:26:45.994Z,2.85
2022-09-15T07:27:17.551Z,3.20
2022-09-15T07:27:49.081Z,3.38
2022-09-15T07:28:20.600Z,3.22
2022-09-15T07:28:55.686Z,3.35
2022-09-15T07:29:27.191Z,3.42
2022-09-15T07:29:59.195Z,3.15
2022-09-15T07:30:30.777Z,3.08
2022-09-15T07:31:04.114Z,2.80
2022-09-15T07:31:38.562Z,2.75
2022-09-15T07:32:10.234Z,2.55
2022-09-15T07:32:41.803Z,2.60
2022-09-15T07:33:13.711Z,2.60
2022-09-15T07:33:45.475Z,2.75
2022-09-15T07:34:17.434Z,2.55
2022-09-15T07:34:48.972Z,2.83
2022-09-15T07:35:21.802Z,2.90
2022-09-15T07:35:53.310Z,3.20
2022-09-15T07:36:24.873Z,3.35